Time;durP1;ratioP1;P1;durP2;ratioP2;P2;SDS_P1;SDS_P2;PMS_P1;PMS_P2;Temp;Humidity;BMP_temperature;BMP_pressure;BME280_temperature;BME280_humidity;BME280_pressure;Samples;Min_cycle;Max_cycle;Signal;HPM_P1;HPM_P2
2023/12/04 00:02:23;;;;;;;21.02;13.10;;;-2.00;98.70;;;;;;5053725;28;20033;-69
2023/12/04 00:04:49;;;;;;;18.55;12.80;;;-2.00;98.70;;;;;;5054488;28;20028;-69
2023/12/04 00:07:14;;;;;;;19.25;12.57;;;-2.00;98.70;;;;;;5053841;28;20036;-68
2023/12/04 00:09:40;;;;;;;18.75;12.52;;;-2.00;98.80;;;;;;5054257;28;20074;-68
2023/12/04 00:12:06;;;;;;;20.10;13.18;;;-2.00;98.90;;;;;;5052060;28;20116;-70
2023/12/04 00:14:31;;;;;;;20.33;13.27;;;-2.00;99.00;;;;;;5054210;28;20067;-69
2023/12/04 00:16:57;;;;;;;20.80;12.70;;;-2.00;99.00;;;;;;5054119;28;20025;-69
2023/12/04 00:19:23;;;;;;;21.40;13.43;;;-2.00;99.00;;;;;;5053578;28;20029;-68
2023/12/04 00:21:49;;;;;;;21.33;12.88;;;-2.00;99.10;;;;;;5054245;28;20033;-68
2023/12/04 00:24:15;;;;;;;19.83;13.68;;;-2.10;99.20;;;;;;5053539;28;20044;-68
2023/12/04 00:26:40;;;;;;;19.00;12.30;;;-2.10;99.30;;;;;;5053658;28;20029;-68
2023/12/04 00:29:06;;;;;;;22.70;13.27;;;-2.10;99.40;;;;;;5053619;28;20024;-68
2023/12/04 00:31:32;;;;;;;19.38;12.38;;;-2.10;99.50;;;;;;5052976;28;20036;-69
2023/12/04 00:33:57;;;;;;;19.50;12.88;;;-2.10;99.70;;;;;;5053764;28;20021;-68
2023/12/04 00:36:23;;;;;;;22.73;13.63;;;-2.10;99.80;;;;;;5053284;28;20370;-70
2023/12/04 00:38:48;;;;;;;20.40;12.80;;;-2.10;99.90;;;;;;5053921;28;20033;-68
2023/12/04 00:41:14;;;;;;;20.75;13.30;;;-2.10;99.90;;;;;;5052021;28;20036;-70
2023/12/04 00:43:40;;;;;;;20.20;13.93;;;-2.10;99.90;;;;;;5053585;28;20021;-68
2023/12/04 00:46:06;;;;;;;19.77;13.23;;;-2.20;99.90;;;;;;5053484;28;20025;-70
2023/12/04 00:48:31;;;;;;;22.23;13.60;;;-2.10;99.90;;;;;;5052639;28;20025;-69
2023/12/04 00:50:58;;;;;;;19.30;13.23;;;-2.10;99.90;;;;;;5054013;28;20021;-70
2023/12/04 00:53:24;;;;;;;19.75;13.10;;;-2.10;99.90;;;;;;5052840;28;20436;-69
2023/12/04 00:55:49;;;;;;;20.48;13.00;;;-2.10;99.80;;;;;;5053328;28;20025;-69
2023/12/04 00:58:15;;;;;;;22.52;12.95;;;-2.20;99.60;;;;;;5052972;28;20028;-68
2023/12/04 01:00:40;;;;;;;23.55;13.70;;;-2.20;99.50;;;;;;5053092;28;20106;-69
2023/12/04 01:03:06;;;;;;;19.63;13.45;;;-2.30;99.70;;;;;;5052857;28;20494;-69
2023/12/04 01:05:32;;;;;;;25.67;13.90;;;-2.30;99.70;;;;;;5053352;28;20032;-70
2023/12/04 01:07:57;;;;;;;21.40;14.32;;;-2.40;99.80;;;;;;5053205;28;20432;-69
2023/12/04 01:10:23;;;;;;;19.75;13.60;;;-2.40;99.70;;;;;;5052610;28;20039;-68
2023/12/04 01:12:48;;;;;;;21.30;14.15;;;-2.50;99.70;;;;;;5053144;28;20029;-70
2023/12/04 01:15:14;;;;;;;21.30;14.85;;;-2.50;99.90;;;;;;5052671;28;20036;-70
2023/12/04 01:17:40;;;;;;;22.67;14.32;;;-2.50;99.90;;;;;;5053377;28;20029;-70
2023/12/04 01:20:06;;;;;;;22.52;15.13;;;-2.60;99.90;;;;;;5052561;28;20033;-72
2023/12/04 01:22:32;;;;;;;18.85;13.93;;;-2.60;99.90;;;;;;5053036;28;20036;-70
2023/12/04 01:24:58;;;;;;;22.02;14.43;;;-2.70;99.90;;;;;;5052639;28;20021;-69
2023/12/04 01:27:23;;;;;;;22.77;14.82;;;-2.70;99.90;;;;;;5052542;28;20021;-70
2023/12/04 01:29:49;;;;;;;21.00;14.52;;;-2.70;99.90;;;;;;5052517;28;20071;-70
2023/12/04 01:32:14;;;;;;;21.80;15.20;;;-2.80;99.90;;;;;;5052750;28;20082;-70
2023/12/04 01:34:40;;;;;;;21.83;15.20;;;-2.80;99.90;;;;;;5052452;28;20017;-70
2023/12/04 01:37:06;;;;;;;22.85;15.95;;;-2.80;99.90;;;;;;5052733;28;20025;-70
2023/12/04 01:39:31;;;;;;;23.15;15.55;;;-2.80;99.90;;;;;;5052692;28;20064;-68
2023/12/04 01:41:57;;;;;;;23.15;16.17;;;-2.80;99.90;;;;;;5051996;28;20071;-70
2023/12/04 01:44:22;;;;;;;23.10;16.42;;;-2.80;99.90;;;;;;5051813;28;20091;-69
2023/12/04 01:46:49;;;;;;;25.45;16.65;;;-2.80;99.90;;;;;;5052583;28;20067;-69
2023/12/04 01:49:14;;;;;;;23.08;16.90;;;-2.80;99.90;;;;;;5052194;28;20056;-70
2023/12/04 01:51:40;;;;;;;26.70;17.73;;;-2.80;99.90;;;;;;5052566;28;20065;-70
2023/12/04 01:54:06;;;;;;;24.00;17.35;;;-2.80;99.90;;;;;;5052258;28;20029;-68
2023/12/04 01:56:34;;;;;;;24.98;18.38;;;-2.80;99.90;;;;;;5052099;28;20028;-69
2023/12/04 01:59:00;;;;;;;26.58;18.65;;;-2.70;99.90;;;;;;5052205;28;20032;-68
2023/12/04 02:01:27;;;;;;;26.90;17.98;;;-2.70;99.90;;;;;;5052288;28;20045;-68
2023/12/04 02:03:54;;;;;;;26.35;18.77;;;-2.70;99.90;;;;;;5052554;28;20082;-69
2023/12/04 02:06:20;;;;;;;22.95;17.02;;;-2.70;99.90;;;;;;5051778;28;20381;-69
2023/12/04 02:08:47;;;;;;;23.67;15.63;;;-2.70;99.90;;;;;;5052307;28;20025;-70
2023/12/04 02:11:13;;;;;;;26.25;16.08;;;-2.70;99.90;;;;;;5051982;28;20029;-69
2023/12/04 02:13:39;;;;;;;22.80;16.35;;;-2.70;99.90;;;;;;5051832;28;20462;-69
2023/12/04 02:16:09;;;;;;;27.45;15.50;;;-2.70;99.90;;;;;;5052377;28;20104;-70
2023/12/04 02:18:37;;;;;;;23.55;16.15;;;-2.70;99.90;;;;;;5052325;28;20036;-70
2023/12/04 02:21:03;;;;;;;24.40;16.75;;;-2.80;99.90;;;;;;5052051;28;20052;-69
2023/12/04 02:23:29;;;;;;;22.83;16.63;;;-2.80;99.90;;;;;;5051926;28;20089;-70
2023/12/04 02:26:10;;;;;;;25.52;16.13;;;-2.80;99.90;;;;;;5052172;28;20105;-70
2023/12/04 02:28:38;;;;;;;26.50;17.20;;;-2.80;99.90;;;;;;5052222;28;20033;-70
2023/12/04 02:31:05;;;;;;;25.83;17.23;;;-2.80;99.90;;;;;;5052229;28;20055;-68
2023/12/04 02:33:32;;;;;;;26.23;17.80;;;-2.80;99.90;;;;;;5051902;28;20032;-70
2023/12/04 02:36:00;;;;;;;26.52;16.92;;;-2.80;99.90;;;;;;5052132;28;20039;-68
2023/12/04 02:38:27;;;;;;;27.40;18.27;;;-2.80;99.90;;;;;;5051824;28;20516;-69
2023/12/04 02:40:52;;;;;;;27.27;18.58;;;-2.80;99.90;;;;;;5052069;28;20025;-70
2023/12/04 02:43:18;;;;;;;24.73;16.70;;;-2.90;99.90;;;;;;5050493;28;20470;-70
2023/12/04 02:45:43;;;;;;;27.90;18.10;;;-2.90;99.90;;;;;;5052325;28;20025;-69
2023/12/04 02:48:10;;;;;;;28.02;19.38;;;-2.90;99.90;;;;;;5052009;28;20458;-69
2023/12/04 02:50:35;;;;;;;26.85;18.90;;;-3.00;99.90;;;;;;5051594;28;20378;-68
2023/12/04 02:53:01;;;;;;;29.33;19.92;;;-3.00;99.90;;;;;;5052000;28;20028;-68
2023/12/04 02:55:28;;;;;;;28.20;19.90;;;-3.00;99.90;;;;;;5053136;28;20363;-69
2023/12/04 02:57:53;;;;;;;30.35;19.90;;;-3.10;99.90;;;;;;5055666;28;20056;-69
2023/12/04 03:00:19;;;;;;;31.48;19.95;;;-3.20;99.90;;;;;;5055186;28;20100;-69
2023/12/04 03:02:44;;;;;;;29.05;19.40;;;-3.20;99.90;;;;;;5055458;28;20120;-69
2023/12/04 03:05:10;;;;;;;28.48;20.85;;;-3.20;99.90;;;;;;5055435;28;20060;-69
2023/12/04 03:07:36;;;;;;;28.10;19.58;;;-3.30;99.90;;;;;;5055047;28;20048;-69
2023/12/04 03:10:02;;;;;;;30.05;20.00;;;-3.20;99.90;;;;;;5055399;28;20033;-68
2023/12/04 03:12:27;;;;;;;30.75;20.67;;;-3.20;99.90;;;;;;5054857;28;20029;-69
2023/12/04 03:14:53;;;;;;;29.40;19.67;;;-3.30;99.90;;;;;;5055572;28;20106;-70
2023/12/04 03:17:18;;;;;;;26.55;19.00;;;-3.30;99.90;;;;;;5054880;28;20083;-70
2023/12/04 03:19:44;;;;;;;29.50;19.98;;;-3.30;99.90;;;;;;5055141;28;20462;-69
2023/12/04 03:22:10;;;;;;;33.25;20.58;;;-3.40;99.90;;;;;;5054903;28;20025;-70
2023/12/04 03:24:35;;;;;;;30.02;19.70;;;-3.40;99.90;;;;;;5054785;28;20028;-69
2023/12/04 03:27:01;;;;;;;33.63;20.83;;;-3.40;99.90;;;;;;5055014;28;20087;-69
2023/12/04 03:29:27;;;;;;;31.35;20.42;;;-3.40;99.90;;;;;;5054508;28;20041;-69
2023/12/04 03:31:52;;;;;;;31.15;20.88;;;-3.40;99.90;;;;;;5055119;28;20025;-69
2023/12/04 03:34:18;;;;;;;33.42;21.90;;;-3.50;99.90;;;;;;5054447;28;20025;-69
2023/12/04 03:36:44;;;;;;;30.85;21.23;;;-3.50;99.90;;;;;;5054623;28;20061;-69
2023/12/04 03:39:09;;;;;;;31.40;21.23;;;-3.50;99.90;;;;;;5054085;28;20033;-69
2023/12/04 03:41:35;;;;;;;32.72;21.52;;;-3.60;99.90;;;;;;5054597;28;20091;-69
2023/12/04 03:44:00;;;;;;;31.77;21.95;;;-3.60;99.90;;;;;;5054719;28;20025;-69
2023/12/04 03:46:26;;;;;;;31.30;21.92;;;-3.60;99.90;;;;;;5054064;28;20462;-69
2023/12/04 03:48:51;;;;;;;30.02;21.42;;;-3.60;99.90;;;;;;5054658;28;20202;-69
2023/12/04 03:51:17;;;;;;;30.65;21.95;;;-3.70;99.90;;;;;;5054178;28;20025;-70
2023/12/04 03:53:43;;;;;;;30.13;22.17;;;-3.70;99.90;;;;;;5054384;28;20489;-69
2023/12/04 03:56:10;;;;;;;30.13;22.50;;;-3.70;99.90;;;;;;5054291;28;20025;-69
2023/12/04 03:58:37;;;;;;;29.52;21.60;;;-3.80;99.90;;;;;;5054049;28;20108;-69
2023/12/04 04:01:03;;;;;;;29.77;21.92;;;-3.80;99.90;;;;;;5054020;28;20060;-69
2023/12/04 04:03:28;;;;;;;34.38;21.33;;;-3.80;99.90;;;;;;5054141;28;20470;-69
2023/12/04 04:05:54;;;;;;;29.30;21.55;;;-3.80;99.90;;;;;;5053421;28;20025;-69
2023/12/04 04:08:19;;;;;;;29.75;21.00;;;-3.80;99.90;;;;;;5053304;28;20079;-69
2023/12/04 04:10:45;;;;;;;29.08;20.88;;;-3.90;99.90;;;;;;5054131;28;20505;-69
2023/12/04 04:13:11;;;;;;;34.03;21.23;;;-3.80;99.90;;;;;;5054266;28;20124;-69
2023/12/04 04:15:36;;;;;;;30.88;20.08;;;-3.80;99.90;;;;;;5054048;28;20028;-69
2023/12/04 04:18:02;;;;;;;30.77;21.10;;;-3.80;99.90;;;;;;5052259;28;20055;-69
2023/12/04 04:20:28;;;;;;;31.67;20.20;;;-3.80;99.90;;;;;;5053632;28;20037;-68
2023/12/04 04:22:53;;;;;;;29.42;18.60;;;-3.80;99.90;;;;;;5054070;28;20021;-68
2023/12/04 04:25:21;;;;;;;31.98;20.25;;;-3.90;99.90;;;;;;5053256;28;20033;-69
2023/12/04 04:27:47;;;;;;;26.73;19.05;;;-3.90;99.90;;;;;;5053899;28;20029;-67
2023/12/04 04:30:13;;;;;;;27.92;19.60;;;-3.90;99.90;;;;;;5053959;28;20037;-68
2023/12/04 04:32:39;;;;;;;26.65;19.35;;;-4.00;99.90;;;;;;5053571;28;20604;-68
2023/12/04 04:35:05;;;;;;;24.98;17.67;;;-4.00;99.90;;;;;;5053920;28;20025;-68
2023/12/04 04:37:30;;;;;;;28.00;19.55;;;-4.00;99.90;;;;;;5053448;28;20029;-70
2023/12/04 04:39:56;;;;;;;26.65;19.00;;;-4.00;99.90;;;;;;5053864;28;20048;-70
2023/12/04 04:42:22;;;;;;;27.50;20.30;;;-4.00;99.90;;;;;;5053370;28;20027;-70
2023/12/04 04:44:48;;;;;;;30.35;20.00;;;-4.00;99.90;;;;;;5053390;28;20025;-69
2023/12/04 04:47:13;;;;;;;27.38;18.98;;;-4.10;99.90;;;;;;5053946;28;20031;-69
2023/12/04 04:49:39;;;;;;;26.92;18.60;;;-4.10;99.90;;;;;;5053367;28;20033;-69
2023/12/04 04:52:05;;;;;;;25.20;19.05;;;-4.10;99.90;;;;;;5053855;28;20033;-69
2023/12/04 04:54:32;;;;;;;27.55;17.65;;;-4.20;99.90;;;;;;5054518;28;20128;-69
2023/12/04 04:56:58;;;;;;;24.48;17.35;;;-4.20;99.90;;;;;;5053429;28;20040;-69
2023/12/04 04:59:23;;;;;;;27.77;19.35;;;-4.20;99.90;;;;;;5052508;28;20037;-69
2023/12/04 05:01:49;;;;;;;27.27;19.45;;;-4.20;99.90;;;;;;5053524;28;20029;-69
2023/12/04 05:04:14;;;;;;;25.60;18.45;;;-4.20;99.90;;;;;;5053269;28;20506;-68
2023/12/04 05:06:40;;;;;;;26.08;18.00;;;-4.30;99.90;;;;;;5052865;28;20382;-69
2023/12/04 05:09:06;;;;;;;24.13;18.27;;;-4.30;99.90;;;;;;5052952;28;20033;-68
2023/12/04 05:11:31;;;;;;;28.48;19.27;;;-4.30;99.90;;;;;;5052742;28;20100;-68
2023/12/04 05:13:57;;;;;;;24.98;18.42;;;-4.30;99.90;;;;;;5052541;28;20025;-68
2023/12/04 05:16:22;;;;;;;25.85;18.08;;;-4.30;99.90;;;;;;5052738;28;20029;-71
2023/12/04 05:18:48;;;;;;;25.48;17.15;;;-4.30;99.90;;;;;;5052822;28;20033;-69
2023/12/04 05:21:14;;;;;;;23.83;17.63;;;-4.30;99.90;;;;;;5052724;28;20501;-69
2023/12/04 05:23:39;;;;;;;25.75;17.80;;;-4.30;99.90;;;;;;5052554;28;20070;-69
2023/12/04 05:26:06;;;;;;;29.90;18.38;;;-4.30;99.90;;;;;;5052873;28;20029;-68
2023/12/04 05:28:32;;;;;;;28.08;17.83;;;-4.30;99.90;;;;;;5051204;28;20025;-69
2023/12/04 05:30:58;;;;;;;24.88;17.25;;;-4.30;99.90;;;;;;5052827;28;20396;-68
2023/12/04 05:33:24;;;;;;;26.00;17.58;;;-4.30;99.90;;;;;;5052426;28;20029;-73
2023/12/04 05:35:51;;;;;;;24.73;17.48;;;-4.30;99.90;;;;;;5052948;28;20472;-69
2023/12/04 05:38:17;;;;;;;28.85;18.42;;;-4.30;99.90;;;;;;5052008;28;20386;-69
2023/12/04 05:40:43;;;;;;;26.88;17.02;;;-4.30;99.90;;;;;;5052597;28;20036;-69
2023/12/04 05:43:08;;;;;;;27.50;17.70;;;-4.40;99.90;;;;;;5052717;28;20025;-69
2023/12/04 05:45:34;;;;;;;23.00;16.15;;;-4.40;99.90;;;;;;5052262;28;20108;-69
2023/12/04 05:48:00;;;;;;;23.63;17.90;;;-4.40;99.90;;;;;;5052612;28;20025;-69
2023/12/04 05:50:26;;;;;;;24.20;17.35;;;-4.40;99.90;;;;;;5052480;28;20058;-69
2023/12/04 05:52:52;;;;;;;21.42;15.60;;;-4.40;99.90;;;;;;5047147;28;20045;-69
2023/12/04 05:55:17;;;;;;;27.58;17.42;;;-4.40;99.90;;;;;;5037963;28;20036;-70
2023/12/04 05:57:44;;;;;;;25.25;17.10;;;-4.40;99.90;;;;;;5046382;28;20043;-69
2023/12/04 06:00:13;;;;;;;27.33;17.15;;;-4.40;99.90;;;;;;5044511;28;20109;-69
2023/12/04 06:02:43;;;;;;;26.17;17.23;;;-4.40;99.90;;;;;;5031781;28;20033;-69
2023/12/04 06:05:09;;;;;;;26.25;17.05;;;-4.40;99.90;;;;;;5033508;28;20025;-69
2023/12/04 06:07:36;;;;;;;24.67;16.95;;;-4.40;99.90;;;;;;5042834;28;20089;-68
2023/12/04 06:10:05;;;;;;;27.45;18.58;;;-4.40;99.90;;;;;;5052202;28;20033;-68
2023/12/04 06:12:31;;;;;;;26.23;18.13;;;-4.40;99.90;;;;;;5048659;28;20397;-68
2023/12/04 06:14:58;;;;;;;28.05;18.08;;;-4.40;99.90;;;;;;5049905;28;20044;-68
2023/12/04 06:17:24;;;;;;;26.58;18.83;;;-4.40;99.90;;;;;;5051887;28;20486;-68
2023/12/04 06:19:50;;;;;;;23.42;17.02;;;-4.50;99.90;;;;;;5042520;28;20352;-68
2023/12/04 06:22:18;;;;;;;23.70;17.15;;;-4.50;99.90;;;;;;5038902;28;20029;-68
2023/12/04 06:24:44;;;;;;;29.65;19.08;;;-4.50;99.90;;;;;;5031908;28;20477;-68
2023/12/04 06:27:14;;;;;;;24.33;17.33;;;-4.50;99.90;;;;;;5037111;28;20055;-68
2023/12/04 06:29:40;;;;;;;26.70;18.77;;;-4.50;99.90;;;;;;5048164;28;20090;-68
2023/12/04 06:32:07;;;;;;;28.33;19.25;;;-4.50;99.90;;;;;;5040546;28;20420;-68
2023/12/04 06:34:33;;;;;;;23.65;17.73;;;-4.50;99.90;;;;;;5055451;28;20163;-69
2023/12/04 06:37:01;;;;;;;25.88;19.33;;;-4.50;99.90;;;;;;5055885;28;20017;-68
2023/12/04 06:39:32;;;;;;;25.63;18.55;;;-4.50;99.90;;;;;;5046070;28;20059;-72
2023/12/04 06:41:58;;;;;;;28.40;18.52;;;-4.50;99.90;;;;;;5037176;28;20474;-69
2023/12/04 06:44:24;;;;;;;23.27;16.52;;;-4.50;99.90;;;;;;5041387;28;20029;-68
2023/12/04 06:46:51;;;;;;;24.60;16.95;;;-4.50;99.90;;;;;;5055372;28;20425;-68
2023/12/04 06:49:18;;;;;;;27.70;17.77;;;-4.40;99.90;;;;;;5055343;28;20043;-68
2023/12/04 06:51:44;;;;;;;24.38;17.80;;;-4.40;99.90;;;;;;5055264;28;20032;-68
2023/12/04 06:54:10;;;;;;;24.58;16.95;;;-4.40;99.90;;;;;;5055492;28;20383;-70
2023/12/04 06:56:36;;;;;;;31.42;18.63;;;-4.40;99.90;;;;;;5037062;28;20489;-68
2023/12/04 06:59:02;;;;;;;28.60;18.90;;;-4.40;99.90;;;;;;5035355;28;20026;-68
2023/12/04 07:01:27;;;;;;;27.00;18.27;;;-4.30;99.90;;;;;;5035527;28;20057;-68
2023/12/04 07:03:53;;;;;;;27.75;17.58;;;-4.40;99.90;;;;;;5052761;28;20021;-67
2023/12/04 07:06:18;;;;;;;23.73;16.60;;;-4.30;99.90;;;;;;5054759;28;20374;-69
2023/12/04 07:08:44;;;;;;;25.75;17.08;;;-4.20;99.90;;;;;;5054778;28;20032;-67
2023/12/04 07:11:10;;;;;;;26.20;18.23;;;-4.20;99.90;;;;;;5054222;28;20428;-68
2023/12/04 07:13:36;;;;;;;26.15;17.67;;;-4.20;99.90;;;;;;5048098;28;20094;-69
2023/12/04 07:16:02;;;;;;;25.10;16.30;;;-4.10;99.90;;;;;;5055246;28;20051;-69
2023/12/04 07:18:28;;;;;;;25.02;17.15;;;-4.10;99.90;;;;;;5054958;28;20037;-67
2023/12/04 07:20:54;;;;;;;21.98;15.77;;;-4.10;99.90;;;;;;5053099;28;20033;-68
2023/12/04 07:23:19;;;;;;;21.50;16.50;;;-4.00;99.90;;;;;;5048918;28;20083;-68
2023/12/04 07:25:46;;;;;;;19.80;15.23;;;-4.00;99.90;;;;;;5041738;28;20532;-68
2023/12/04 07:28:11;;;;;;;22.13;15.63;;;-4.00;99.90;;;;;;5041171;28;20115;-69
2023/12/04 07:30:38;;;;;;;23.83;15.30;;;-4.00;99.90;;;;;;5040499;28;20440;-68
2023/12/04 07:33:04;;;;;;;21.50;15.70;;;-4.00;99.90;;;;;;5052213;28;20064;-68
2023/12/04 07:35:29;;;;;;;23.25;16.05;;;-4.00;99.90;;;;;;5054746;28;20069;-68
2023/12/04 07:37:55;;;;;;;22.33;15.98;;;-4.00;99.90;;;;;;5044983;28;20470;-69
2023/12/04 07:40:22;;;;;;;22.50;15.68;;;-4.00;99.90;;;;;;5049186;28;20033;-69
2023/12/04 07:42:48;;;;;;;21.55;15.63;;;-3.90;99.90;;;;;;5054151;28;20104;-69
2023/12/04 07:45:15;;;;;;;22.35;16.52;;;-3.90;99.90;;;;;;5054196;28;20124;-69
2023/12/04 07:47:41;;;;;;;23.67;17.10;;;-3.90;99.90;;;;;;5054204;28;20024;-69
2023/12/04 07:50:07;;;;;;;25.23;18.27;;;-3.90;99.90;;;;;;5054455;28;20029;-69
2023/12/04 07:52:33;;;;;;;26.05;17.60;;;-3.90;99.90;;;;;;5047426;28;20052;-69
2023/12/04 07:54:59;;;;;;;28.23;18.85;;;-3.90;99.90;;;;;;5045178;28;20418;-67
2023/12/04 07:57:24;;;;;;;25.58;19.05;;;-3.90;99.90;;;;;;5054371;28;20107;-68
2023/12/04 07:59:50;;;;;;;27.00;18.52;;;-3.90;99.90;;;;;;5040105;28;20360;-67
2023/12/04 08:02:15;;;;;;;26.45;18.38;;;-3.90;99.90;;;;;;5036062;28;20072;-67
2023/12/04 08:04:41;;;;;;;24.95;18.15;;;-3.90;99.90;;;;;;5047463;28;20170;-68
2023/12/04 08:07:07;;;;;;;25.42;17.85;;;-3.90;99.90;;;;;;5054148;28;20033;-67
2023/12/04 08:09:33;;;;;;;28.17;18.85;;;-4.00;99.90;;;;;;5053948;28;20040;-71
2023/12/04 08:11:59;;;;;;;22.98;16.98;;;-3.90;99.90;;;;;;5054097;28;20051;-68
2023/12/04 08:14:24;;;;;;;28.70;17.67;;;-3.90;99.90;;;;;;5053988;28;20025;-68
2023/12/04 08:16:50;;;;;;;25.15;17.52;;;-3.80;99.90;;;;;;5053447;28;20526;-68
2023/12/04 08:19:16;;;;;;;25.35;17.10;;;-3.80;99.90;;;;;;5048819;28;20528;-68
2023/12/04 08:21:41;;;;;;;25.95;17.58;;;-3.80;99.90;;;;;;5036097;28;20037;-69
2023/12/04 08:24:07;;;;;;;24.92;18.00;;;-3.70;99.90;;;;;;5051190;28;20021;-69
2023/12/04 08:26:33;;;;;;;40.65;18.95;;;-3.70;99.90;;;;;;5052112;28;20381;-69
2023/12/04 08:28:59;;;;;;;27.25;18.48;;;-3.70;99.90;;;;;;5033456;28;20116;-68
2023/12/04 08:31:25;;;;;;;26.85;18.50;;;-3.70;99.90;;;;;;5032875;28;20104;-69
2023/12/04 08:33:50;;;;;;;24.42;17.58;;;-3.60;99.90;;;;;;5042993;28;20469;-68
2023/12/04 08:36:16;;;;;;;26.90;18.70;;;-3.70;99.90;;;;;;5044839;28;20048;-69
2023/12/04 08:38:41;;;;;;;26.92;18.58;;;-3.60;99.90;;;;;;5052964;28;20381;-70
2023/12/04 08:41:07;;;;;;;26.08;18.33;;;-3.60;99.90;;;;;;5053690;28;20025;-69
2023/12/04 08:43:33;;;;;;;28.85;19.30;;;-3.60;99.90;;;;;;5053617;28;20428;-69
2023/12/04 08:46:00;;;;;;;25.58;17.73;;;-3.50;99.90;;;;;;5041379;28;20037;-69
2023/12/04 08:48:25;;;;;;;28.23;18.17;;;-3.50;99.90;;;;;;5033711;28;20107;-69
2023/12/04 08:50:51;;;;;;;25.17;19.08;;;-3.50;99.90;;;;;;5044228;28;20063;-68
2023/12/04 08:53:17;;;;;;;26.63;18.67;;;-3.50;99.90;;;;;;5036113;28;20028;-69
2023/12/04 08:55:44;;;;;;;28.77;19.85;;;-3.40;99.90;;;;;;5045625;28;20033;-69
2023/12/04 08:58:10;;;;;;;25.05;18.95;;;-3.40;99.90;;;;;;5052825;28;20055;-67
2023/12/04 09:00:42;;;;;;;25.83;18.63;;;-3.40;99.90;;;;;;5056856;28;20047;-69
2023/12/04 09:03:10;;;;;;;25.63;18.20;;;-3.30;99.90;;;;;;5051465;28;20377;-69
2023/12/04 09:05:36;;;;;;;23.63;17.67;;;-3.20;99.90;;;;;;5053183;28;20025;-68
2023/12/04 09:08:01;;;;;;;23.58;17.80;;;-3.10;99.90;;;;;;5052534;28;20021;-69
2023/12/04 09:10:27;;;;;;;25.33;17.85;;;-3.10;99.90;;;;;;5053309;28;20036;-69
2023/12/04 09:12:54;;;;;;;24.38;17.90;;;-3.00;99.90;;;;;;5051987;28;20430;-70
2023/12/04 09:15:20;;;;;;;24.88;17.50;;;-2.90;99.90;;;;;;5052672;28;20021;-70
2023/12/04 09:17:45;;;;;;;23.95;17.58;;;-2.90;99.90;;;;;;5048002;28;20468;-69
2023/12/04 09:20:11;;;;;;;22.85;16.45;;;-2.80;99.90;;;;;;5052468;28;20029;-68
2023/12/04 09:22:38;;;;;;;26.25;17.17;;;-2.80;99.90;;;;;;5049881;28;20032;-70
2023/12/04 09:25:06;;;;;;;24.77;16.85;;;-2.70;99.90;;;;;;5052300;28;20028;-70
2023/12/04 09:27:31;;;;;;;26.65;17.27;;;-2.70;99.90;;;;;;5046365;28;20078;-69
2023/12/04 09:29:57;;;;;;;27.20;19.20;;;-2.70;99.90;;;;;;5051973;28;20411;-68
2023/12/04 09:32:23;;;;;;;24.55;16.23;;;-2.60;99.90;;;;;;5052387;28;20032;-68
2023/12/04 09:34:48;;;;;;;23.77;16.85;;;-2.50;99.90;;;;;;5052136;28;20017;-70
2023/12/04 09:37:14;;;;;;;25.88;17.63;;;-2.50;99.90;;;;;;5051998;28;20029;-70
2023/12/04 09:39:40;;;;;;;23.25;16.25;;;-2.40;99.90;;;;;;5052396;28;20037;-70
2023/12/04 09:42:07;;;;;;;25.20;16.90;;;-2.40;99.90;;;;;;5052283;28;20033;-69
2023/12/04 09:44:33;;;;;;;23.65;16.25;;;-2.30;99.90;;;;;;5052649;28;20171;-69
2023/12/04 09:47:02;;;;;;;22.83;16.15;;;-2.30;99.90;;;;;;5051473;28;20029;-69
2023/12/04 09:49:29;;;;;;;25.17;16.10;;;-2.20;99.90;;;;;;5052208;28;20394;-72
2023/12/04 09:51:57;;;;;;;26.27;16.08;;;-2.10;99.90;;;;;;5051981;28;20072;-69
2023/12/04 09:54:23;;;;;;;23.30;15.85;;;-2.00;99.90;;;;;;5052230;28;20033;-71
2023/12/04 09:56:49;;;;;;;24.90;15.63;;;-1.90;99.90;;;;;;5052135;28;20036;-69
2023/12/04 09:59:16;;;;;;;22.10;14.85;;;-1.80;99.90;;;;;;5052471;28;20025;-69
2023/12/04 10:01:44;;;;;;;23.00;15.07;;;-1.70;99.90;;;;;;5052277;28;20473;-75
2023/12/04 10:04:10;;;;;;;20.90;13.70;;;-1.50;99.90;;;;;;5053991;28;20058;-70
2023/12/04 10:06:38;;;;;;;20.77;14.60;;;-1.30;99.90;;;;;;5056600;28;20022;-69
2023/12/04 10:09:04;;;;;;;23.17;14.23;;;-1.20;99.90;;;;;;5056144;28;20458;-69
2023/12/04 10:11:30;;;;;;;20.58;13.07;;;-1.00;99.90;;;;;;5053077;28;20068;-69
2023/12/04 10:13:56;;;;;;;18.67;13.05;;;-0.90;99.90;;;;;;5051130;28;20064;-69
2023/12/04 10:16:35;;;;;;;17.17;12.75;;;-0.80;99.90;;;;;;5036143;28;20025;-68
2023/12/04 10:19:17;;;;;;;19.80;12.73;;;-0.60;99.90;;;;;;5036092;28;20037;-69
2023/12/04 10:21:44;;;;;;;18.42;11.73;;;-0.40;99.90;;;;;;5040319;28;20474;-69
2023/12/04 10:24:10;;;;;;;21.85;13.35;;;-0.30;99.90;;;;;;5056070;28;20067;-70
2023/12/04 10:26:36;;;;;;;19.80;13.50;;;-0.20;99.90;;;;;;5036648;28;20032;-71
2023/12/04 10:29:03;;;;;;;21.10;12.52;;;-0.20;99.90;;;;;;5035571;28;20029;-69
2023/12/04 10:31:33;;;;;;;19.00;12.57;;;-0.10;99.90;;;;;;5037669;28;20029;-69
2023/12/04 10:33:59;;;;;;;19.33;12.95;;;-0.10;99.90;;;;;;5055488;28;20104;-69
2023/12/04 10:36:25;;;;;;;18.35;12.63;;;0.00;99.80;;;;;;5055474;28;20529;-69
2023/12/04 10:39:00;;;;;;;20.25;13.05;;;0.00;99.50;;;;;;5052857;28;20112;-70
2023/12/04 10:41:26;;;;;;;16.33;11.95;;;-0.10;99.00;;;;;;5046866;28;20025;-69
2023/12/04 10:43:52;;;;;;;18.58;12.55;;;-0.10;99.00;;;;;;5055457;28;20021;-69
2023/12/04 10:46:19;;;;;;;20.42;12.60;;;0.00;99.00;;;;;;5055782;28;20042;-68
2023/12/04 10:48:45;;;;;;;18.70;12.90;;;-0.10;98.80;;;;;;5054326;28;20171;-69
2023/12/04 10:51:12;;;;;;;19.10;12.52;;;0.00;98.80;;;;;;5055646;28;20462;-69
2023/12/04 10:53:40;;;;;;;18.65;13.02;;;0.00;98.50;;;;;;5055730;28;20025;-69
2023/12/04 10:56:08;;;;;;;18.73;11.95;;;0.00;98.80;;;;;;5055007;28;20239;-69
2023/12/04 10:58:35;;;;;;;17.42;12.43;;;0.10;98.90;;;;;;5055507;28;20032;-69
2023/12/04 11:01:02;;;;;;;21.13;13.05;;;0.10;99.30;;;;;;5064659;28;20057;-70
2023/12/04 11:03:49;;;;;;;20.13;13.38;;;0.20;99.30;;;;;;5055370;28;20040;-70
2023/12/04 11:06:17;;;;;;;20.38;12.35;;;0.30;98.90;;;;;;5055252;28;20056;-70
2023/12/04 11:08:45;;;;;;;20.77;12.68;;;0.30;98.50;;;;;;5055043;28;20028;-69
2023/12/04 11:11:19;;;;;;;19.25;12.50;;;0.40;98.50;;;;;;5053585;28;20354;-68
2023/12/04 11:13:51;;;;;;;16.27;11.60;;;0.40;98.50;;;;;;5055212;28;20029;-69
2023/12/04 11:16:27;;;;;;;20.02;11.77;;;0.50;98.50;;;;;;5052357;28;20087;-70
2023/12/04 11:19:31;;;;;;;18.17;11.90;;;0.50;98.50;;;;;;5044035;28;20041;-70
2023/12/04 11:21:59;;;;;;;18.10;10.85;;;0.60;98.50;;;;;;5051968;28;20068;-69
2023/12/04 11:24:25;;;;;;;18.27;10.68;;;0.70;98.60;;;;;;5055106;28;20115;-69
2023/12/04 11:26:51;;;;;;;14.13;9.65;;;0.70;98.50;;;;;;5054615;28;20429;-71
2023/12/04 11:29:18;;;;;;;15.25;10.27;;;0.80;98.60;;;;;;5054973;28;20058;-70
2023/12/04 11:31:45;;;;;;;16.38;11.00;;;0.90;98.50;;;;;;5047691;28;20025;-69
2023/12/04 11:34:11;;;;;;;14.57;10.13;;;0.90;98.60;;;;;;5045906;28;20041;-69
2023/12/04 11:36:38;;;;;;;16.38;10.20;;;1.00;98.50;;;;;;5054728;28;20422;-69
2023/12/04 11:39:09;;;;;;;12.50;8.90;;;1.10;98.30;;;;;;5054313;28;20466;-70
2023/12/04 11:41:35;;;;;;;16.35;9.18;;;1.20;98.00;;;;;;5049181;28;20064;-70
2023/12/04 11:44:01;;;;;;;14.02;8.38;;;1.20;97.60;;;;;;5049631;28;20432;-71
2023/12/04 11:46:28;;;;;;;12.95;8.27;;;1.30;97.10;;;;;;5045203;28;20395;-70
2023/12/04 11:48:56;;;;;;;12.93;7.47;;;1.30;96.80;;;;;;5039898;28;20107;-70
2023/12/04 11:51:39;;;;;;;12.40;7.82;;;1.40;96.20;;;;;;5043979;28;20029;-69
2023/12/04 11:54:09;;;;;;;10.32;6.85;;;1.40;95.80;;;;;;5054182;28;20485;-70
2023/12/04 11:56:34;;;;;;;12.68;6.60;;;1.40;95.30;;;;;;5054343;28;20103;-69
2023/12/04 11:59:04;;;;;;;9.80;6.13;;;1.40;94.80;;;;;;5038079;28;20622;-70
2023/12/04 12:01:37;;;;;;;9.77;5.75;;;1.40;94.50;;;;;;5054588;28;20052;-71
2023/12/04 12:04:10;;;;;;;9.13;6.07;;;1.40;93.80;;;;;;5053999;28;20033;-70
2023/12/04 12:06:35;;;;;;;8.43;5.88;;;1.40;93.30;;;;;;5054300;28;20116;-69
2023/12/04 12:09:01;;;;;;;9.48;6.22;;;1.40;93.20;;;;;;5053891;28;20418;-70
2023/12/04 12:11:27;;;;;;;8.45;6.00;;;1.40;93.00;;;;;;5053403;28;20087;-71
2023/12/04 12:13:53;;;;;;;9.75;6.18;;;1.40;92.90;;;;;;5047710;28;20025;-76
2023/12/04 12:16:19;;;;;;;10.68;6.13;;;1.50;92.90;;;;;;5036863;28;20095;-69
2023/12/04 12:18:46;;;;;;;10.95;7.10;;;1.50;92.80;;;;;;5053963;28;20021;-68
2023/12/04 12:21:12;;;;;;;12.05;8.07;;;1.50;92.60;;;;;;5053657;28;20036;-69
2023/12/04 12:23:38;;;;;;;11.70;7.03;;;1.40;92.60;;;;;;5053644;28;20470;-68
2023/12/04 12:26:04;;;;;;;13.23;8.27;;;1.40;92.60;;;;;;5047002;28;20078;-69